• Join FlightAware (Why Join?)
  • Login
  • US Flag 
08:15PM EST


 

Airport Tracker/Info


-or-


 

Live Flight TrackerFlight Track Log ✈ VH-OZO ✈ 31-Jan-2014 ✈ YDEK - YPJT / JAD

Flight Track Log - Related Links

Times and Time Zones

All times are in EST time to prevent confusion due to time zone crossing. See the VH-OZO flight status page for this flight to view local times or setup timezone preferences in your user account.

Time Position Orientation Groundspeed Altitude Reporting Facility
EST Latitude Longitude Course Direction KTS MPH feet Rate Location/Type
06:42AM -34.7765 117.3280 344° North 8,000  Level Aus ATC (Calculated)
06:43AM -34.7765 117.3280 344° North 8,000 -360 Level Aus ATC (Calculated)
06:45AM -34.7239 117.3067 341° North  Level FlightAware Approximate
06:45AM -34.7253 117.3072 345° North 8,000  Level Aus ATC (Calculated)
06:46AM -34.6802 117.2889 342° North  Level FlightAware Approximate
06:47AM -34.6728 117.2859 342° North  Level FlightAware Approximate
06:48AM -34.6290 117.2681 342° North  Level FlightAware Approximate
06:49AM -34.5853 117.2503 342° North  Level FlightAware Approximate
06:49AM -34.5825 117.2612 342° North 161 185 5,900  Level Aus ATC (RADAR)
06:49AM -34.5634 117.2495 333° Northwest 154 177 6,000 180 Climbing Aus ATC (RADAR)
06:50AM -34.5422 117.2392 338° Northwest 144 166 6,100  Climbing Aus ATC (RADAR)
06:51AM -34.5010 117.2082 328° Northwest 162 186 6,100 60 Level Aus ATC (RADAR)
06:51AM -34.4936 117.2076 356° North 162 186 6,200  Climbing Aus ATC (RADAR)
06:52AM -34.4542 117.1835 333° Northwest 154 177 6,100 -120 Descending Aus ATC (RADAR)
06:53AM -34.4407 117.1686 318° Northwest 151 174 6,100  Level Aus ATC (RADAR)
06:55AM -34.3492 117.1239 338° Northwest 182 209 6,100  Level Aus ATC (RADAR)
06:56AM -34.3303 117.1046 320° Northwest 155 178 6,100  Level Aus ATC (RADAR)
06:56AM -34.3080 117.0941 339° North 146 168 6,100  Level Aus ATC (RADAR)
06:57AM -34.2824 117.0802 336° Northwest 149 171 6,100  Level Aus ATC (RADAR)
06:57AM -34.2603 117.0665 333° Northwest 150 173 6,100  Level Aus ATC (RADAR)
06:58AM -34.2421 117.0508 324° Northwest 154 177 6,100  Level Aus ATC (RADAR)
06:59AM -34.2033 117.0297 336° Northwest 152 175 6,100  Level Aus ATC (RADAR)
06:59AM -34.1872 117.0202 334° Northwest 153 176 6,100  Level Aus ATC (RADAR)
07:00AM -34.1453 116.9952 334° Northwest 152 175 6,100  Level Aus ATC (RADAR)
07:01AM -34.1062 116.9746 336° Northwest 152 175 6,100 -60 Level Aus ATC (RADAR)
07:02AM -34.0675 116.9511 333° Northwest 156 180 6,000  Descending Aus ATC (RADAR)
07:03AM -34.0239 116.9314 339° North 153 176 6,100  Climbing Aus ATC (RADAR)
07:05AM -33.9799 116.9117 340° North 156 180 6,100  Level Aus ATC (RADAR)
07:06AM -33.9373 116.8918 339° North 149 171 6,100  Level Aus ATC (RADAR)
07:07AM -33.8974 116.8629 329° Northwest 151 174 6,100  Level Aus ATC (RADAR)
07:08AM -33.8559 116.8384 334° Northwest 151 174 6,100  Level Aus ATC (RADAR)
07:09AM -33.8142 116.8133 333° Northwest 155 178 6,100 -120 Level Aus ATC (RADAR)
07:10AM -33.7881 116.7978 334° Northwest 158 182 5,900 -60 Descending Aus ATC (RADAR)
07:11AM -33.7255 116.7659 337° Northwest 155 178 6,000 60 Climbing Aus ATC (RADAR)
07:12AM -33.6825 116.7425 336° Northwest 155 178 6,100  Climbing Aus ATC (RADAR)
07:13AM -33.6430 116.7201 335° Northwest 156 180 6,000  Descending Aus ATC (RADAR)
07:14AM -33.5961 116.6954 336° Northwest 156 180 6,100  Climbing Aus ATC (RADAR)
07:15AM -33.5529 116.6709 335° Northwest 158 182 6,100  Level Aus ATC (RADAR)
07:16AM -33.5086 116.6500 339° North 156 180 6,100  Level Aus ATC (RADAR)
07:17AM -33.4686 116.6288 336° Northwest 157 181 6,100  Level Aus ATC (RADAR)
07:18AM -33.4303 116.6041 332° Northwest 156 180 6,100  Level Aus ATC (RADAR)
07:20AM -33.3871 116.5796 335° Northwest 158 182 6,100  Level Aus ATC (RADAR)
07:21AM -33.3443 116.5561 335° Northwest 157 181 6,100  Level Aus ATC (RADAR)
07:22AM -33.3010 116.5351 338° Northwest 155 178 6,100  Level Aus ATC (RADAR)
07:23AM -33.2593 116.5080 332° Northwest 154 177 6,100 -60 Level Aus ATC (RADAR)
07:24AM -33.2162 116.4838 335° Northwest 155 178 6,000  Descending Aus ATC (RADAR)
07:25AM -33.1735 116.4599 335° Northwest 155 178 6,100  Climbing Aus ATC (RADAR)
07:26AM -33.1348 116.4398 336° Northwest 150 173 6,100  Level Aus ATC (RADAR)
07:27AM -33.0891 116.4159 336° Northwest 152 175 6,100  Level Aus ATC (RADAR)
07:28AM -33.0503 116.3938 334° Northwest 153 176 6,100  Level Aus ATC (RADAR)
07:29AM -33.0050 116.3696 336° Northwest 150 173 6,100  Level Aus ATC (RADAR)
07:30AM -32.9596 116.3459 336° Northwest 151 174 6,100  Level Aus ATC (RADAR)
07:31AM -32.9212 116.3217 332° Northwest 156 180 6,100  Level Aus ATC (RADAR)
07:33AM -32.8747 116.2986 337° Northwest 155 178 6,100  Level Aus ATC (RADAR)
07:34AM -32.8309 116.2750 336° Northwest 158 182 6,100 -60 Level Aus ATC (RADAR)
07:35AM -32.7899 116.2521 335° Northwest 162 186 6,000  Descending Aus ATC (RADAR)
07:36AM -32.7388 116.2254 336° Northwest 157 181 6,100  Climbing Aus ATC (RADAR)
07:37AM -32.6984 116.2032 335° Northwest 159 183 6,100  Level Aus ATC (RADAR)
07:38AM -32.6551 116.1803 336° Northwest 157 181 6,100 -60 Level Aus ATC (RADAR)
07:39AM -32.6150 116.1579 335° Northwest 156 180 6,000 -360 Descending Aus ATC (RADAR)
07:40AM -32.5719 116.1314 333° Northwest 175 201 5,400 -540 Descending Aus ATC (RADAR)
07:41AM -32.5217 116.1070 338° Northwest 180 207 4,900 -600 Descending Aus ATC (RADAR)
07:42AM -32.4717 116.0824 337° Northwest 180 207 4,200 -420 Descending Aus ATC (RADAR)
07:43AM -32.4227 116.0554 335° Northwest 170 196 4,000 -120 Descending Aus ATC (RADAR)
07:44AM -32.3814 116.0326 335° Northwest 163 188 4,000 -60 Level Aus ATC (RADAR)
07:45AM -32.3344 116.0078 336° Northwest 158 182 3,900 -300 Descending Aus ATC (RADAR)
07:47AM -32.2874 115.9813 335° Northwest 173 199 3,400 -480 Descending Aus ATC (RADAR)
07:48AM -32.2416 115.9576 336° Northwest 181 208 2,900 -540 Descending Aus ATC (RADAR)
07:49AM -32.1891 115.9304 336° Northwest 173 199 2,300 -600 Descending Aus ATC (RADAR)
07:50AM -32.1462 115.9028 331° Northwest 171 197 1,700 -540 Descending Aus ATC (RADAR)
07:51AM -32.1066 115.9178 18° North 153 176 1,200 -480 Descending Aus ATC (RADAR)
07:52AM -32.0784 115.9089 345° North 113 130 700 -480 Descending Aus ATC (RADAR)